KEUG/EUG METAR and TAF weather

Enter ICAO airport designator
Station Type Date Time Source
KEUG METAR 2019/02/20 22:54 UTC NOAA

KEUG 202254Z 27006KT 10SM -RA BKN016 BKN028 05/02 A2985 RMK AO2 RAB43 SLP110 P0000 T00500022


Station Type Date Time Source
KEUG Decoded METAR 2019/02/20 22:54 UTC NOAA

MAHLON SWEET FIELD, OR, United States (KEUG) 44-08N 123-13W 114M
Feb 20, 2019 - 05:54 PM EST / 2019.02.20 2254 UTC
Wind: from the W (270 degrees) at 7 MPH (6 KT):0
Visibility: 10 mile(s):0
Sky conditions: mostly cloudy
Weather: light rain
Precipitation last hour: A trace
Temperature: 41.0 F (5.0 C)
Dew Point: 36.0 F (2.2 C)
Relative Humidity: 82%
Pressure (altimeter): 29.85 in. Hg (1010 hPa)
ob: KEUG 202254Z 27006KT 10SM -RA BKN016 BKN028 05/02 A2985 RMK AO2 RAB43 SLP110 P0000 T00500022
cycle: 23

Station Type Date Time Source
KEUG TAF 2019/02/20 18:57 UTC NOAA

TAF KEUG 201754Z 2018/2118 23005KT P6SM VCSH SCT025 BKN045
TEMPO 2018/2022 4SM -SHRA BKN020
FM210300 33004KT P6SM BKN035
FM210700 01005KT P6SM BKN025
TEMPO 2112/2116 4SM BR


Example: see airport list